Lockwood, North Dakota
Current Conditions -  °F | °C
As of 9:58 AM on Saturday 25 Oct 2014 (Local Time) from KMIB Reporting Station
Clear Clear  
Wind Chill: 38°   Ceiling: Unl
Heat Index: 42°   Visibility: 10mi
Dew Point: 32°   Wind: 8mph
Humidity: 68%   Direction: 270°W
Pressure: 30.13"   Gusts: NA
Location:  48.6236°N, 101.367°W
Report Text: KMIB 251458Z AUTO 27007KT 10SM CLR 06/00 A3013 RMK AO2 SLP220 T00580002 53010 $
Loading
Personal Weather Stations






























Interactive Weather Map
Tropical Storm Tracking
New forecast layout! Learn more

10-Day Weather Forecast

Advertisements
Track Severe Weather on mobile